Leadville, CO (80429)

1:48 AM MST on February 14, 2016 (GMT -0700)
Lake County | | Change Station
CLOSE
Current Station
Airport
Location: Leadville,
Elevation: 9928 ft
Nearby Weather Stations

Elev 9928 ft 39.23 °N, 106.32 °W | Updated 55 minutes ago

Clear
Clear
25 °F
Feels Like 16 °F
N
9
Wind Variable Wind from North

Today
High -- | Low -- °F
--% Chance of Precip.
Yesterday
High -- | Low -- °F
Precip. -- in
Pressure 29.97 in
Visibility 10.0 miles
Clouds Clear
Windchill 16 °F
Dew Point 7 °F
Humidity 46%
Rainfall 0.00 in
Snow Depth Not available.
6:58 AM 5:40 PM
Waxing Crescent, 39% visible
METAR KLXV 140753Z AUTO 01008KT 10SM CLR M04/M14 A3020 RMK AO2 SLP149 T10391139
Pressure 29.97 in
Visibility 10.0 miles
Clouds Clear
Windchill 16 °F
Dew Point 7 °F
Humidity 46%
Rainfall 0.00 in
Snow Depth Not available.
6:58 AM 5:40 PM
Waxing Crescent, 39% visible
METAR KLXV 140753Z AUTO 01008KT 10SM CLR M04/M14 A3020 RMK AO2 SLP149 T10391139

10-Day Weather Forecast

Almanac

Astronomy

Feb. 14, 2016 Rise Set
Actual Time
Civil Twilight
Nautical Twilight
Astronomical Twilight
Moon
Length of Visible Light
Length of Day
Tomorrow will be .
, % of the Moon is Illuminated

Today's Extremes

State Highs State Lows

Community

WunderPhotos

Upload Photos

1,892,763 photos uploaded!

WunderBlog® & News

Nearby

Air Quality

  Air Quality AQ Index Pollutant
Not available.

Snow Depth

Station Depth Elevation

Earthquake Activity

City Distance Mag. Time & Date
Minimum magnitude displayed is 2.5.

Coastal Water Temperatures

Place Temperature

Stations

Nearby Weather Stations

Station Location Temp. Windchill Dew Point Humidity Wind Precip. Elev Updated Type
                   

Watches & Warnings

There are currently no watches in effect.